createdAt,value
2023-05-09T04:27:18.631Z,95.80
2023-05-09T04:29:53.506Z,95.50
2023-05-09T04:32:23.369Z,95.80
2023-05-09T04:34:53.090Z,95.40
2023-05-09T04:37:24.929Z,95.40
2023-05-09T04:39:52.535Z,95.90
2023-05-09T04:42:29.864Z,95.90
2023-05-09T04:57:51.241Z,95.90
2023-05-09T06:08:37.322Z,89.10
2023-05-09T06:11:05.954Z,88.90
2023-05-09T06:13:33.531Z,88.30
2023-05-09T06:22:52.398Z,85.70
2023-05-09T06:25:20.876Z,85.00
2023-05-09T10:31:26.560Z,78.50
2023-05-09T10:33:58.598Z,78.50
2023-05-09T10:36:29.989Z,77.30
2023-05-09T10:38:57.644Z,76.70
2023-05-09T10:41:27.734Z,76.50
2023-05-09T10:43:59.878Z,75.30
2023-05-09T10:46:27.959Z,74.80
2023-05-09T10:48:56.409Z,75.20
2023-05-09T10:51:24.552Z,75.10
2023-05-09T10:53:52.740Z,76.60
2023-05-09T10:56:40.313Z,75.30
2023-05-09T10:59:37.872Z,76.30
2023-05-09T11:02:05.859Z,77.60
2023-05-09T11:29:56.236Z,77.60
2023-05-09T11:32:30.857Z,76.80
2023-05-09T11:35:15.771Z,77.90
2023-05-09T11:37:54.938Z,79.50
2023-05-09T11:40:24.070Z,81.60
2023-05-09T11:42:57.768Z,82.00
2023-05-09T11:48:49.028Z,84.60
2023-05-09T11:51:19.446Z,84.30
2023-05-09T11:53:52.006Z,84.50
2023-05-09T11:56:22.879Z,87.10
2023-05-09T11:58:52.189Z,87.50
2023-05-09T12:01:19.933Z,88.40
2023-05-09T12:03:47.953Z,88.00
2023-05-09T12:06:17.838Z,87.90
2023-05-09T12:08:47.071Z,89.70
2023-05-09T12:11:15.107Z,89.80
2023-05-09T12:13:50.414Z,90.00
2023-05-09T12:16:19.047Z,88.80
2023-05-09T12:18:51.620Z,89.90
2023-05-09T12:21:22.460Z,89.50
2023-05-09T12:23:55.934Z,90.20
2023-05-09T12:26:23.685Z,91.00
2023-05-09T12:28:52.132Z,90.90
2023-05-09T12:31:21.297Z,91.00
2023-05-09T12:33:48.992Z,90.70
2023-05-09T12:36:16.709Z,90.80
2023-05-09T12:38:56.934Z,90.70
2023-05-09T12:43:54.873Z,90.30
2023-05-09T12:46:22.258Z,91.10
2023-05-09T12:48:50.616Z,90.70
2023-05-09T12:51:22.812Z,90.00
2023-05-09T12:53:50.217Z,90.40
2023-05-09T12:56:19.304Z,90.10
2023-05-09T12:58:51.534Z,90.70
2023-05-09T13:01:23.895Z,91.40
2023-05-09T13:03:52.716Z,90.70
2023-05-09T13:06:21.002Z,91.30
2023-05-09T13:09:02.572Z,91.50
2023-05-09T13:11:30.116Z,91.30
2023-05-09T13:13:58.127Z,91.40
2023-05-09T13:16:25.626Z,91.50
2023-05-09T13:18:56.104Z,91.30
2023-05-09T13:21:23.591Z,91.30
2023-05-09T13:23:51.173Z,90.50
2023-05-09T13:26:18.884Z,91.00
2023-05-09T13:28:46.351Z,91.60
2023-05-09T13:31:13.870Z,91.60
2023-05-09T13:33:41.283Z,92.20
2023-05-09T13:36:08.655Z,92.50
2023-05-09T13:38:40.648Z,92.40
2023-05-09T13:41:09.078Z,92.40
2023-05-09T13:43:37.202Z,92.40
2023-05-09T13:46:05.033Z,92.30
2023-05-09T13:48:32.474Z,91.40
2023-05-09T13:51:03.748Z,91.50
2023-05-09T13:53:31.541Z,91.40
2023-05-09T13:56:00.094Z,89.80
2023-05-09T13:58:28.957Z,90.20
2023-05-09T14:00:56.505Z,90.00
2023-05-09T14:03:24.085Z,89.70
2023-05-09T14:06:23.936Z,89.20
2023-05-09T14:08:54.765Z,89.10
2023-05-09T14:11:29.455Z,88.30
2023-05-09T14:14:02.832Z,87.50
2023-05-09T14:16:30.200Z,90.10
2023-05-09T14:18:58.664Z,89.50
2023-05-09T14:21:27.148Z,90.30
2023-05-09T14:23:54.509Z,90.80
2023-05-09T14:26:22.131Z,90.90
2023-05-09T14:28:49.491Z,90.90
2023-05-09T14:31:17.561Z,90.70
2023-05-09T14:33:45.818Z,90.20
2023-05-09T14:36:13.188Z,90.60
2023-05-09T14:38:41.026Z,90.00
2023-05-09T14:41:09.144Z,90.00
2023-05-09T14:43:36.818Z,90.10
2023-05-09T14:46:06.402Z,90.20
2023-05-09T14:48:34.023Z,90.80
2023-05-09T14:51:02.384Z,91.90
2023-05-09T14:53:47.822Z,91.50
2023-05-09T14:56:16.676Z,91.60
2023-05-09T14:58:53.126Z,91.30
2023-05-09T15:01:35.836Z,91.20
2023-05-09T15:04:04.383Z,90.90
2023-05-09T15:10:18.289Z,91.80
2023-05-09T15:12:46.176Z,91.60
2023-05-09T15:12:52.950Z,91.70
2023-05-09T15:15:18.983Z,92.50
2023-05-09T15:17:47.267Z,92.50
2023-05-09T15:20:21.990Z,92.80
2023-05-09T15:23:33.364Z,92.50
2023-05-09T15:26:29.438Z,91.30
2023-05-09T15:29:01.585Z,91.40
2023-05-09T15:31:33.848Z,91.20
2023-05-09T15:34:02.015Z,91.70
2023-05-09T15:36:30.068Z,91.50
2023-05-09T15:39:00.632Z,91.80
2023-05-09T15:41:28.683Z,92.50
2023-05-09T15:43:57.066Z,93.30
2023-05-09T15:46:24.889Z,93.40
2023-05-09T15:48:54.739Z,93.00
2023-05-09T15:51:23.808Z,93.80
2023-05-09T15:53:54.511Z,94.10
2023-05-09T15:56:25.919Z,94.10
2023-05-09T15:59:12.245Z,94.20
2023-05-09T16:02:00.295Z,93.40
2023-05-09T16:04:48.798Z,93.90
2023-05-09T16:07:16.159Z,93.50
2023-05-09T16:09:44.641Z,93.50
2023-05-09T16:12:12.484Z,93.60
2023-05-09T16:14:39.874Z,93.80
2023-05-09T16:17:07.269Z,94.30
2023-05-09T16:19:36.104Z,94.50
2023-05-09T16:22:04.200Z,94.30
2023-05-09T16:24:32.670Z,93.80
2023-05-09T16:26:59.997Z,94.20
2023-05-09T16:29:28.388Z,94.30
2023-05-09T16:31:55.800Z,94.60
2023-05-09T16:34:23.374Z,94.00
2023-05-09T16:36:52.188Z,94.50
2023-05-09T16:39:19.563Z,94.20
2023-05-09T16:41:46.830Z,94.30
2023-05-09T16:44:15.232Z,93.90
2023-05-09T16:46:42.587Z,94.00
2023-05-09T16:49:10.311Z,94.10
2023-05-09T16:51:38.517Z,94.20
2023-05-09T16:54:07.784Z,94.10
2023-05-09T16:56:35.500Z,94.20
2023-05-09T16:59:03.425Z,94.00
2023-05-09T17:01:30.955Z,94.30
2023-05-09T17:03:58.339Z,94.20
2023-05-09T17:06:26.566Z,94.30
2023-05-09T17:08:54.550Z,94.10
2023-05-09T17:11:22.776Z,94.30
2023-05-09T17:13:50.285Z,93.90
2023-05-09T17:16:17.713Z,93.50
2023-05-09T17:18:48.174Z,93.20
2023-05-09T17:21:16.562Z,93.30
2023-05-09T17:23:43.931Z,93.30
2023-05-09T17:26:11.567Z,93.90
2023-05-09T17:28:38.933Z,93.50
2023-05-09T17:31:06.342Z,93.20
2023-05-09T17:33:33.973Z,93.50
2023-05-09T17:36:01.579Z,94.00
2023-05-09T17:38:28.983Z,94.10
2023-05-09T17:40:56.950Z,94.20
2023-05-09T17:43:24.895Z,94.50
2023-05-09T17:45:52.451Z,94.40
2023-05-09T17:48:21.177Z,94.30
2023-05-09T17:50:49.543Z,94.30
2023-05-09T17:53:17.199Z,94.20
2023-05-09T17:55:45.016Z,94.40
2023-05-09T17:58:12.604Z,94.80
2023-05-09T18:00:39.992Z,94.80
2023-05-09T18:03:09.753Z,95.40
2023-05-09T18:05:37.376Z,95.10
2023-05-09T18:08:05.566Z,95.20
2023-05-09T18:10:33.146Z,95.30
2023-05-09T18:13:00.512Z,95.30
2023-05-09T18:15:30.069Z,95.30
2023-05-09T18:17:57.734Z,95.30
2023-05-09T18:20:25.281Z,95.00
2023-05-09T18:22:53.798Z,95.30
2023-05-09T18:25:21.611Z,94.90
2023-05-09T18:27:49.080Z,94.80
2023-05-09T18:30:18.701Z,94.90
2023-05-09T18:32:48.517Z,94.70
2023-05-09T18:35:16.186Z,94.50
2023-05-09T18:37:44.256Z,94.90
2023-05-09T18:40:15.533Z,95.40
2023-05-09T18:42:43.774Z,95.50
2023-05-09T18:45:12.442Z,95.50
2023-05-09T18:53:53.970Z,94.80
2023-05-09T19:02:36.280Z,95.30
2023-05-09T19:05:08.533Z,95.80
2023-05-09T19:07:36.415Z,95.50
2023-05-09T19:10:05.078Z,96.20
2023-05-09T19:15:53.983Z,96.20
2023-05-09T19:18:21.528Z,96.00
2023-05-09T19:20:50.955Z,96.20
2023-05-09T19:32:53.197Z,96.50
